Main page
Satellite images 15-day forecastsClimateMarine weather Cyclones Lightning AirportsFAQ Newsletter About
Weather : Europe Africa North America South America Asia Australia-Oceania Others
Languages Contact

Viru-Viru, Bolivia

latitude: 17-38S, longitude: 063-08W, elevation: 373 m


METAR: SLVR 010900Z 36006KT 9999 NSC 19/19 Q1012
short-TAF: out of date (5512 hours)
long-TAF: SLVR 010420Z 0106/0206 34008KT 9999 NSC TX31/0119Z TN20/0110Z TEMPO 0109/0112 FEW008 BECMG 0115/0118 34020G35KT SCT020 BECMG 0123/0201 34010KT NSC

Time: 05:48 (09:48 UTC)

Current weather observation

The report was made 48 minutes ago, at 09:00 UTC  
Wind 06 kt from the North
Temperature 19°C
Humidity 100%
Pressure 1012 hPa
Visibility 10 km or more

Change units

Forecast

The report was made 5 hours and 15 minutes ago, at 04:33 UTC  
Forecast valid from 01 at 06 UTC to 02 at 06 UTC
Wind 08 kt from the North/Northwest
Visibility 10 km or more
Temporary
from 01 at 09 UTC to 01 at 12 UTC
Few clouds at a height of 800 ft
Becoming
from 01 at 15 UTC to 01 at 18 UTC
Wind 20 kt from the North/Northwest with gusts up to 35 kt
Scattered clouds at a height of 2000 ft
Becoming
from 01 at 23 UTC to 02 at 01 UTC
Wind 10 kt from the North/Northwest
The information on this site is subject to a disclaimer
Weather : Europe Africa North America South America Asia Australia-Oceania Others
Satellite images 15-day forecastsClimateMarine weather Cyclones Lightning AirportsFAQ Languages Contact Newsletter About